Time;durP1;ratioP1;P1;durP2;ratioP2;P2;SDS_P1;SDS_P2;PMS_P1;PMS_P2;Temp;Humidity;BMP_temperature;BMP_pressure;BME280_temperature;BME280_humidity;BME280_pressure;Samples;Min_cycle;Max_cycle;Signal;HPM_P1;HPM_P2
2021/05/17 09:45:11;;;;;;;1.80;1.35;;;14.60;99.40;;;;;;5989976;23;20510;-44
2021/05/17 09:47:37;;;;;;;1.55;1.08;;;14.30;99.90;;;;;;4905389;29;20043;-50
2021/05/17 09:50:04;;;;;;;1.77;1.17;;;14.10;99.90;;;;;;4896856;29;20028;-51
2021/05/17 09:52:34;;;;;;;3.42;1.02;;;13.90;99.90;;;;;;4896016;29;20029;-47
2021/05/17 09:55:10;;;;;;;1.77;1.00;;;13.90;99.90;;;;;;4895659;29;20025;-56
2021/05/17 09:57:44;;;;;;;1.92;1.13;;;13.90;99.90;;;;;;4877522;29;20029;-49
2021/05/17 10:00:25;;;;;;;2.22;1.00;;;14.00;99.90;;;;;;4909503;23;20485;-50
2021/05/17 10:02:52;;;;;;;1.98;0.75;;;14.00;99.90;;;;;;4911520;29;20025;-49
2021/05/17 10:05:21;;;;;;;2.25;0.90;;;13.90;99.90;;;;;;4921221;29;20496;-56
2021/05/17 10:07:58;;;;;;;3.85;1.10;;;13.90;99.90;;;;;;4934053;29;20031;-49
2021/05/17 10:10:25;;;;;;;1.20;0.70;;;13.90;99.90;;;;;;4906168;29;20037;-49
2021/05/17 10:12:52;;;;;;;1.38;1.02;;;13.90;99.90;;;;;;4895799;29;20519;-47
2021/05/17 10:15:20;;;;;;;4.47;0.95;;;13.90;99.90;;;;;;4894890;29;20040;-48
2021/05/17 10:17:46;;;;;;;0.88;0.70;;;14.00;99.90;;;;;;4886711;29;20040;-48
2021/05/17 10:20:16;;;;;;;4.30;1.08;;;14.20;99.90;;;;;;4863444;29;20123;-45
2021/05/17 10:22:42;;;;;;;1.58;0.95;;;14.30;99.30;;;;;;4914089;29;20028;-54
2021/05/17 10:25:10;;;;;;;0.98;0.63;;;14.50;99.50;;;;;;4910067;29;20083;-49
2021/05/17 10:27:45;;;;;;;3.70;1.00;;;14.70;99.00;;;;;;4896858;29;20035;-48
2021/05/17 10:30:12;;;;;;;0.88;0.55;;;14.80;98.80;;;;;;4905555;29;20036;-57
2021/05/17 10:32:54;;;;;;;1.50;0.57;;;15.00;97.70;;;;;;4895290;29;20505;-53
2021/05/17 10:35:42;;;;;;;3.55;0.77;;;15.10;98.60;;;;;;4892592;29;20077;-59
2021/05/17 10:38:22;;;;;;;0.75;0.70;;;15.30;97.60;;;;;;4897353;29;20036;-52
2021/05/17 10:40:51;;;;;;;3.47;0.80;;;15.50;97.60;;;;;;4899345;29;20168;-60
2021/05/17 10:43:49;;;;;;;2.20;1.00;;;15.60;97.50;;;;;;4907989;29;20026;-58
2021/05/17 10:49:23;;;;;;;2.17;0.60;;;15.70;96.70;;;;;;4895498;29;20426;-51
2021/05/17 10:51:50;;;;;;;0.93;0.43;;;15.80;95.90;;;;;;4894734;29;20562;-54
2021/05/17 10:54:26;;;;;;;0.75;0.40;;;15.80;95.70;;;;;;4894284;29;20036;-53
2021/05/17 10:56:59;;;;;;;0.52;0.40;;;15.70;94.70;;;;;;4895132;29;20032;-52
2021/05/17 11:02:30;;;;;;;0.80;0.30;;;15.60;94.50;;;;;;4914048;29;20039;-63
2021/05/17 11:05:01;;;;;;;0.43;0.43;;;15.60;95.00;;;;;;4891445;29;20402;-52
2021/05/17 11:07:44;;;;;;;0.77;0.47;;;15.60;95.60;;;;;;4895873;29;20032;-57
2021/05/17 11:10:15;;;;;;;1.45;0.52;;;15.60;95.50;;;;;;4895798;29;20044;-53
2021/05/17 11:12:40;;;;;;;3.92;0.43;;;15.60;95.50;;;;;;4895632;29;20028;-48
2021/05/17 11:15:18;;;;;;;0.77;0.50;;;15.60;95.70;;;;;;4894911;29;20402;-53
2021/05/17 11:18:17;;;;;;;1.52;0.52;;;15.60;95.60;;;;;;4895574;29;20025;-53
2021/05/17 11:20:45;;;;;;;1.20;0.40;;;15.60;96.30;;;;;;4893843;29;20031;-48
2021/05/17 11:23:36;;;;;;;0.40;0.40;;;15.70;96.60;;;;;;4894640;29;20204;-46
2021/05/17 11:28:38;;;;;;;2.80;0.90;;;15.80;98.00;;;;;;4877285;29;20089;-47
2021/05/17 11:31:14;;;;;;;3.95;1.33;;;15.40;99.50;;;;;;4876681;29;20063;-48
2021/05/17 11:34:05;;;;;;;;;;;14.80;99.90;;;;;;4875605;29;20025;-47
2021/05/17 11:36:34;;;;;;;2.90;1.05;;;14.70;99.90;;;;;;4873006;29;19914;-50
2021/05/17 11:39:13;;;;;;;5.20;1.30;;;14.60;99.90;;;;;;4876954;29;20394;-49
2021/05/17 11:41:41;;;;;;;6.13;1.15;;;14.70;99.90;;;;;;4876983;29;20028;-45
2021/05/17 11:44:11;;;;;;;1.98;0.70;;;14.80;99.90;;;;;;4876260;29;20037;-50
2021/05/17 11:46:40;;;;;;;1.83;0.73;;;14.90;99.90;;;;;;4876718;29;20123;-48
2021/05/17 11:49:11;;;;;;;1.77;0.93;;;14.90;99.90;;;;;;4876542;29;20096;-47
2021/05/17 11:51:37;;;;;;;2.08;0.90;;;15.10;99.60;;;;;;4876774;29;20068;-45
2021/05/17 11:54:03;;;;;;;2.25;0.80;;;15.10;99.90;;;;;;4907168;29;20032;-47
2021/05/17 11:56:40;;;;;;;1.45;0.80;;;15.20;99.90;;;;;;4914399;29;20092;-48
2021/05/17 11:59:18;;;;;;;1.70;0.77;;;15.40;99.50;;;;;;4913419;29;20532;-50
2021/05/17 12:01:46;;;;;;;3.90;0.90;;;15.50;98.80;;;;;;4896191;29;20107;-48
2021/05/17 12:04:23;;;;;;;2.45;0.50;;;15.60;98.40;;;;;;4913395;29;20063;-49
2021/05/17 12:06:55;;;;;;;1.23;0.60;;;15.60;97.70;;;;;;4914463;29;20138;-45
2021/05/17 12:09:46;;;;;;;1.33;0.73;;;15.70;97.60;;;;;;4914556;29;20088;-47
2021/05/17 12:12:14;;;;;;;1.15;0.80;;;15.80;96.90;;;;;;4914320;29;20028;-43
2021/05/17 12:14:47;;;;;;;5.22;1.38;;;15.90;96.70;;;;;;4913978;29;20021;-44
2021/05/17 12:17:26;;;;;;;0.65;0.63;;;16.10;96.90;;;;;;4914460;29;20028;-47
2021/05/17 12:19:53;;;;;;;1.00;0.45;;;16.10;96.60;;;;;;4914554;29;20396;-44
2021/05/17 12:22:23;;;;;;;0.60;0.60;;;16.20;96.20;;;;;;4913982;29;20036;-45
2021/05/17 12:24:50;;;;;;;0.88;0.60;;;16.20;95.60;;;;;;4896642;29;20087;-46
2021/05/17 12:27:18;;;;;;;2.10;0.80;;;16.20;96.10;;;;;;4904196;29;20058;-45
2021/05/17 12:29:50;;;;;;;0.93;0.50;;;16.30;95.50;;;;;;4895367;29;20096;-47
2021/05/17 12:32:15;;;;;;;1.60;0.50;;;16.30;95.50;;;;;;4895299;29;20036;-47
2021/05/17 12:34:58;;;;;;;1.10;0.73;;;16.20;95.00;;;;;;4897325;29;20029;-46
2021/05/17 12:37:32;;;;;;;1.25;0.38;;;16.10;95.20;;;;;;4898503;29;20028;-45
2021/05/17 12:40:12;;;;;;;0.52;0.40;;;16.10;95.70;;;;;;4898225;29;20028;-45
2021/05/17 12:42:39;;;;;;;3.10;0.40;;;16.10;95.10;;;;;;4898309;29;20032;-47
2021/05/17 12:45:10;;;;;;;1.13;0.50;;;16.00;94.60;;;;;;4897512;29;20032;-47
2021/05/17 12:47:44;;;;;;;3.20;0.47;;;15.90;95.20;;;;;;4898260;29;20032;-45
2021/05/17 12:50:20;;;;;;;2.80;0.70;;;16.00;95.90;;;;;;4881299;29;20115;-45
2021/05/17 12:52:48;;;;;;;0.43;0.40;;;16.00;96.40;;;;;;4898245;29;20036;-46
2021/05/17 12:55:16;;;;;;;1.40;0.52;;;16.20;95.90;;;;;;4897652;29;20025;-45
2021/05/17 12:58:00;;;;;;;0.40;0.40;;;16.40;94.70;;;;;;4898158;29;20453;-45
2021/05/17 13:00:44;;;;;;;12.93;0.88;;;16.40;94.30;;;;;;4897987;29;20390;-46
2021/05/17 13:03:31;;;;;;;1.90;0.55;;;16.40;94.50;;;;;;4897608;29;20020;-46
2021/05/17 13:06:08;;;;;;;3.70;0.57;;;16.40;94.90;;;;;;4897886;29;20037;-48
2021/05/17 13:08:36;;;;;;;1.88;0.60;;;16.40;94.70;;;;;;4897889;29;20029;-46
2021/05/17 13:11:10;;;;;;;0.60;0.60;;;16.50;94.90;;;;;;4897918;29;20505;-45
2021/05/17 13:13:43;;;;;;;1.27;0.55;;;16.50;95.60;;;;;;4880336;29;20037;-48
2021/05/17 13:16:16;;;;;;;0.50;0.45;;;16.70;95.40;;;;;;4897994;29;20039;-46
2021/05/17 13:30:59;;;;;;;0.50;0.50;;;16.70;92.20;;;;;;4897695;29;20088;-45
2021/05/17 13:33:29;;;;;;;0.57;0.57;;;16.60;93.00;;;;;;4896729;29;20084;-46
2021/05/17 13:36:01;;;;;;;1.02;0.60;;;16.50;93.00;;;;;;4897605;29;20460;-51
2021/05/17 13:38:29;;;;;;;0.55;0.50;;;16.40;93.50;;;;;;4897589;29;20029;-49
2021/05/17 13:40:55;;;;;;;6.95;0.50;;;16.30;93.50;;;;;;4880628;29;20033;-47
2021/05/17 13:43:20;;;;;;;1.23;0.57;;;16.20;94.00;;;;;;4896830;29;20504;-48
2021/05/17 13:45:47;;;;;;;0.90;0.40;;;16.20;94.40;;;;;;4896960;29;20096;-48
2021/05/17 13:48:13;;;;;;;1.13;0.80;;;16.20;94.50;;;;;;4897277;29;20466;-50
2021/05/17 13:50:39;;;;;;;0.68;0.43;;;16.20;94.50;;;;;;4880393;29;20077;-45
2021/05/17 13:53:05;;;;;;;3.25;0.68;;;16.30;94.40;;;;;;4896805;29;20029;-45
2021/05/17 13:55:30;;;;;;;3.42;0.55;;;16.30;94.40;;;;;;4897184;29;20438;-48
2021/05/17 13:57:56;;;;;;;1.40;0.50;;;16.40;93.10;;;;;;4897274;29;20029;-43
2021/05/17 14:00:23;;;;;;;0.43;0.40;;;16.40;93.40;;;;;;4897202;29;20028;-45
2021/05/17 14:02:48;;;;;;;1.00;0.40;;;16.50;93.70;;;;;;4897228;29;20029;-46
2021/05/17 14:05:14;;;;;;;4.93;0.50;;;16.60;93.60;;;;;;4896297;29;20029;-44
2021/05/17 14:07:40;;;;;;;1.60;0.47;;;16.50;94.10;;;;;;4896895;29;20478;-44
2021/05/17 14:10:07;;;;;;;1.80;0.43;;;16.50;94.60;;;;;;4896860;29;20107;-45
2021/05/17 14:12:33;;;;;;;1.20;0.77;;;16.50;93.90;;;;;;4896991;29;20502;-47
2021/05/17 14:14:58;;;;;;;0.82;0.60;;;16.40;93.60;;;;;;4896530;29;20031;-46
2021/05/17 14:17:24;;;;;;;0.80;0.50;;;16.40;93.80;;;;;;4897185;29;20137;-44
2021/05/17 14:19:49;;;;;;;0.40;0.40;;;16.30;93.30;;;;;;4896859;29;20093;-47
2021/05/17 14:22:15;;;;;;;2.08;0.80;;;16.30;93.20;;;;;;4897018;29;20394;-45
2021/05/17 14:24:41;;;;;;;2.65;0.50;;;16.30;93.60;;;;;;4896762;29;20528;-48
2021/05/17 14:27:08;;;;;;;0.43;0.43;;;16.30;93.80;;;;;;4896982;29;20084;-46
2021/05/17 14:29:34;;;;;;;2.45;0.77;;;16.20;96.90;;;;;;4897002;29;20088;-45
2021/05/17 14:32:01;;;;;;;4.15;0.77;;;16.10;98.50;;;;;;4896912;29;20029;-43
2021/05/17 14:34:28;;;;;;;1.00;0.90;;;15.90;99.80;;;;;;4879336;29;20347;-45
2021/05/17 14:36:53;;;;;;;1.90;0.60;;;15.90;98.80;;;;;;4896624;29;20601;-47
2021/05/17 14:39:19;;;;;;;2.38;0.93;;;15.90;98.10;;;;;;4896276;29;20123;-46
2021/05/17 14:41:45;;;;;;;0.90;0.73;;;16.00;99.00;;;;;;4896465;29;20035;-45
2021/05/17 14:44:11;;;;;;;2.63;0.60;;;15.90;98.80;;;;;;4895496;29;20486;-45
2021/05/17 14:46:36;;;;;;;4.22;0.90;;;15.90;98.70;;;;;;4896365;29;20041;-48
2021/05/17 14:49:03;;;;;;;2.72;0.90;;;15.70;98.70;;;;;;4896381;29;20096;-44
2021/05/17 14:51:29;;;;;;;0.50;0.50;;;15.40;99.40;;;;;;4896519;29;20486;-49
2021/05/17 14:53:56;;;;;;;1.60;0.65;;;15.20;99.90;;;;;;4895728;29;20029;-46
2021/05/17 14:56:22;;;;;;;1.02;0.77;;;15.10;99.90;;;;;;4895836;29;20112;-47
2021/05/17 14:58:48;;;;;;;1.27;0.98;;;15.00;99.90;;;;;;4896120;29;20469;-45
2021/05/17 15:01:13;;;;;;;4.80;0.80;;;15.00;99.90;;;;;;4896371;29;20045;-45
2021/05/17 15:03:39;;;;;;;1.90;0.65;;;15.00;99.90;;;;;;4895332;29;20047;-49
2021/05/17 15:06:04;;;;;;;0.98;0.52;;;15.00;99.90;;;;;;4896040;29;20495;-45
2021/05/17 15:08:30;;;;;;;1.30;0.55;;;15.10;99.60;;;;;;4896009;29;20131;-50
2021/05/17 15:10:55;;;;;;;1.27;0.70;;;15.30;99.60;;;;;;4879195;29;20056;-50
2021/05/17 15:13:21;;;;;;;5.60;0.55;;;15.50;98.40;;;;;;4895142;29;20067;-47
2021/05/17 15:15:47;;;;;;;1.42;0.68;;;15.80;96.60;;;;;;4896120;29;20028;-46
2021/05/17 15:18:13;;;;;;;0.75;0.50;;;16.00;95.60;;;;;;4895856;29;20553;-47
2021/05/17 15:20:40;;;;;;;0.40;0.40;;;16.10;95.20;;;;;;4879407;29;20059;-47
2021/05/17 15:23:15;;;;;;;1.55;0.55;;;16.10;95.90;;;;;;4895499;29;20137;-46
2021/05/17 15:25:40;;;;;;;0.63;0.43;;;16.10;96.30;;;;;;4895776;29;20040;-46
2021/05/17 15:28:06;;;;;;;0.70;0.70;;;16.10;96.30;;;;;;4895682;29;20025;-46
2021/05/17 15:30:31;;;;;;;4.32;1.08;;;15.90;96.40;;;;;;4896085;29;20036;-49
2021/05/17 15:32:57;;;;;;;0.57;0.55;;;15.90;96.50;;;;;;4895717;29;20032;-46
2021/05/17 15:35:23;;;;;;;0.50;0.50;;;15.80;96.70;;;;;;4895493;29;20083;-49
2021/05/17 15:37:48;;;;;;;2.22;0.52;;;15.70;97.10;;;;;;4895220;29;20024;-45
2021/05/17 15:40:16;;;;;;;0.85;0.50;;;15.60;97.40;;;;;;4895521;29;20145;-46
2021/05/17 15:42:43;;;;;;;0.65;0.52;;;15.60;97.40;;;;;;4878616;29;20096;-50
2021/05/17 15:45:10;;;;;;;2.65;0.85;;;15.60;98.10;;;;;;4895035;29;20052;-50
2021/05/17 15:47:36;;;;;;;1.55;0.60;;;15.50;98.90;;;;;;4894978;29;20031;-48
2021/05/17 15:50:02;;;;;;;3.33;0.70;;;15.40;99.90;;;;;;4895853;29;20033;-46
2021/05/17 15:52:28;;;;;;;2.10;0.70;;;15.30;99.90;;;;;;4895445;29;20399;-49
2021/05/17 15:54:53;;;;;;;1.77;0.85;;;15.10;99.90;;;;;;4878181;29;20035;-45
2021/05/17 15:57:19;;;;;;;1.88;0.77;;;15.00;99.90;;;;;;4895621;29;20035;-45
2021/05/17 15:59:45;;;;;;;1.05;0.70;;;14.80;99.90;;;;;;4878570;29;20497;-48
2021/05/17 16:02:10;;;;;;;1.25;0.63;;;14.80;99.90;;;;;;4895434;29;20032;-46
2021/05/17 16:04:36;;;;;;;0.77;0.60;;;14.70;99.90;;;;;;4895166;29;20524;-45
2021/05/17 16:07:01;;;;;;;6.82;0.98;;;14.70;99.90;;;;;;4925819;23;20417;-42
2021/05/17 16:09:27;;;;;;;2.70;1.20;;;14.60;99.90;;;;;;4916908;29;20120;-49
2021/05/17 16:12:01;;;;;;;1.70;0.70;;;14.60;99.90;;;;;;4901752;29;20025;-49
2021/05/17 16:14:36;;;;;;;0.73;0.50;;;14.60;99.90;;;;;;4907293;29;20033;-45
2021/05/17 16:22:30;;;;;;;0.70;0.70;;;14.50;99.90;;;;;;4892018;29;20061;-45
2021/05/17 16:24:56;;;;;;;0.45;0.40;;;14.60;99.90;;;;;;4889814;29;20033;-44
2021/05/17 16:27:22;;;;;;;0.82;0.60;;;14.60;99.90;;;;;;4897446;29;20450;-45
2021/05/17 16:29:48;;;;;;;0.52;0.50;;;14.80;99.90;;;;;;4899110;29;20557;-51
2021/05/17 16:32:14;;;;;;;1.42;0.40;;;14.90;99.90;;;;;;4899707;29;20036;-52
2021/05/17 16:34:41;;;;;;;1.65;0.73;;;14.90;99.90;;;;;;4898890;29;20021;-45
2021/05/17 16:37:09;;;;;;;0.57;0.57;;;14.80;99.90;;;;;;4899133;29;20036;-47
2021/05/17 16:39:35;;;;;;;2.83;0.52;;;14.70;99.90;;;;;;4898849;29;20448;-47
2021/05/17 16:42:01;;;;;;;0.65;0.30;;;14.70;99.90;;;;;;4898619;29;20068;-45
2021/05/17 16:44:27;;;;;;;0.77;0.40;;;14.70;99.90;;;;;;4898262;29;20059;-47
2021/05/17 16:46:54;;;;;;;0.40;0.40;;;14.70;99.90;;;;;;4898623;29;20028;-51
2021/05/17 16:49:20;;;;;;;0.30;0.30;;;14.60;99.90;;;;;;4898690;29;20024;-50
2021/05/17 16:51:47;;;;;;;0.38;0.35;;;14.60;99.90;;;;;;4898726;29;20028;-49
2021/05/17 16:54:15;;;;;;;1.30;0.57;;;14.60;99.90;;;;;;4881501;29;20020;-45
2021/05/17 16:56:42;;;;;;;0.40;0.40;;;14.60;99.90;;;;;;4893453;29;20037;-44
2021/05/17 16:59:09;;;;;;;0.40;0.40;;;14.60;99.90;;;;;;4890026;29;20501;-48
2021/05/17 17:01:37;;;;;;;2.47;0.47;;;14.60;99.90;;;;;;4898652;29;20080;-44
2021/05/17 17:04:07;;;;;;;1.60;0.50;;;14.60;99.90;;;;;;4898236;29;20079;-48
2021/05/17 17:06:35;;;;;;;2.90;0.55;;;14.60;99.90;;;;;;4897188;29;20025;-52
2021/05/17 17:09:03;;;;;;;2.20;0.60;;;14.60;99.90;;;;;;4883687;29;20025;-44
2021/05/17 17:11:28;;;;;;;0.88;0.70;;;14.60;99.90;;;;;;4898093;29;20495;-45
2021/05/17 17:13:54;;;;;;;0.40;0.40;;;14.60;99.90;;;;;;4893879;29;20037;-48
2021/05/17 17:16:20;;;;;;;2.83;1.17;;;14.70;99.90;;;;;;4897854;29;20036;-48
2021/05/17 17:18:46;;;;;;;1.35;0.40;;;14.80;99.90;;;;;;4897341;29;20116;-49
2021/05/17 17:21:12;;;;;;;0.75;0.45;;;14.80;99.90;;;;;;4898236;29;20066;-46
2021/05/17 17:23:37;;;;;;;0.45;0.30;;;14.90;99.90;;;;;;4880971;29;20029;-49
2021/05/17 17:26:03;;;;;;;0.57;0.57;;;14.80;99.90;;;;;;4898097;29;20028;-45
2021/05/17 17:28:28;;;;;;;1.95;0.40;;;14.80;99.90;;;;;;4897872;29;20100;-48
2021/05/17 17:30:54;;;;;;;0.65;0.50;;;14.80;99.90;;;;;;4896529;29;20056;-49
2021/05/17 17:33:20;;;;;;;0.75;0.50;;;14.80;99.90;;;;;;4897767;29;20041;-44
2021/05/17 17:35:45;;;;;;;0.98;0.38;;;14.70;99.90;;;;;;4897691;29;20103;-49
2021/05/17 17:38:11;;;;;;;1.67;1.27;;;14.70;99.90;;;;;;4896476;29;20039;-47
2021/05/17 17:40:37;;;;;;;0.55;0.55;;;14.70;99.90;;;;;;4897989;29;20112;-47
2021/05/17 17:43:03;;;;;;;0.77;0.45;;;14.80;99.90;;;;;;4889640;29;20056;-49
2021/05/17 17:45:28;;;;;;;1.00;0.57;;;14.70;99.90;;;;;;4887840;29;20080;-56
2021/05/17 17:47:54;;;;;;;0.47;0.47;;;14.70;99.90;;;;;;4889594;29;20033;-58
2021/05/17 17:50:20;;;;;;;1.33;0.50;;;14.70;99.90;;;;;;4897811;29;20490;-53
2021/05/17 17:52:46;;;;;;;0.70;0.47;;;14.60;99.90;;;;;;4895994;29;20367;-50
2021/05/17 17:55:15;;;;;;;3.65;1.00;;;14.60;99.90;;;;;;4896358;29;20025;-52
2021/05/17 17:57:42;;;;;;;1.60;1.20;;;14.50;99.90;;;;;;4895151;29;20060;-59
2021/05/17 18:00:08;;;;;;;1.48;1.23;;;14.60;99.90;;;;;;4897439;29;20486;-62
2021/05/17 18:02:35;;;;;;;0.50;0.50;;;14.60;99.90;;;;;;4881763;29;20037;-58
2021/05/17 18:05:00;;;;;;;0.47;0.40;;;14.60;99.90;;;;;;4877963;29;20047;-57
2021/05/17 18:07:26;;;;;;;4.18;1.10;;;14.60;99.90;;;;;;4890904;29;20032;-57
2021/05/17 18:09:51;;;;;;;1.33;0.60;;;14.60;99.90;;;;;;4897261;29;20360;-56
2021/05/17 18:12:22;;;;;;;6.50;0.65;;;14.60;99.90;;;;;;4887758;29;20032;-53
2021/05/17 18:14:47;;;;;;;0.57;0.57;;;14.60;99.90;;;;;;4878351;29;20033;-58
2021/05/17 18:17:14;;;;;;;1.08;0.60;;;14.60;99.90;;;;;;4895838;29;20379;-55
2021/05/17 18:19:40;;;;;;;0.80;0.70;;;14.50;99.90;;;;;;4896954;29;20454;-50
2021/05/17 18:22:06;;;;;;;6.47;1.48;;;14.50;99.90;;;;;;4893195;29;20089;-57
2021/05/17 18:24:31;;;;;;;1.02;0.60;;;14.50;99.90;;;;;;4891447;29;20048;-46
2021/05/17 18:26:57;;;;;;;6.07;1.48;;;14.60;99.90;;;;;;4891962;29;20093;-59
2021/05/17 18:29:29;;;;;;;2.45;1.30;;;14.50;99.90;;;;;;4889295;29;20037;-56
2021/05/17 18:32:07;;;;;;;2.28;1.50;;;14.30;99.90;;;;;;4888280;29;20025;-57
2021/05/17 18:37:10;;;;;;;1.02;0.70;;;14.00;99.90;;;;;;4895227;29;20040;-56
2021/05/17 18:39:36;;;;;;;2.97;1.02;;;13.90;99.90;;;;;;4896655;29;20426;-57
2021/05/17 18:42:03;;;;;;;1.55;0.90;;;13.80;99.90;;;;;;4880176;29;20063;-49
2021/05/17 18:46:54;;;;;;;0.77;0.77;;;13.60;99.90;;;;;;4895822;29;20029;-45
2021/05/17 18:49:20;;;;;;;1.17;0.95;;;13.50;99.90;;;;;;4894331;29;20655;-53
2021/05/17 18:51:45;;;;;;;2.38;0.88;;;13.50;99.90;;;;;;4873257;29;20033;-49
2021/05/17 18:54:13;;;;;;;6.82;1.13;;;13.40;99.90;;;;;;4903504;29;20055;-55
2021/05/17 18:56:40;;;;;;;2.55;0.90;;;13.20;99.90;;;;;;4898911;29;20038;-60
2021/05/17 18:59:10;;;;;;;1.58;0.60;;;13.30;99.90;;;;;;4906120;29;20080;-52
2021/05/17 19:01:36;;;;;;;2.05;1.02;;;13.20;99.90;;;;;;4906761;29;20506;-53
2021/05/17 19:04:03;;;;;;;1.58;0.90;;;13.20;99.90;;;;;;4894561;29;20175;-51
2021/05/17 19:06:31;;;;;;;3.13;0.80;;;13.10;99.90;;;;;;4885649;29;20050;-53
2021/05/17 19:09:02;;;;;;;1.65;0.90;;;13.10;99.90;;;;;;4887265;29;20064;-57
2021/05/17 19:11:29;;;;;;;0.77;0.77;;;13.10;99.90;;;;;;4882105;29;20025;-50
2021/05/17 19:13:55;;;;;;;1.33;0.90;;;13.20;99.90;;;;;;4896233;29;20020;-51
2021/05/17 19:16:20;;;;;;;1.65;1.00;;;13.30;99.90;;;;;;4895375;29;20440;-59
2021/05/17 19:18:48;;;;;;;2.45;0.88;;;13.30;99.90;;;;;;4897924;29;20084;-57
2021/05/17 19:21:15;;;;;;;1.75;0.90;;;13.20;99.90;;;;;;4883820;29;20029;-46
2021/05/17 19:23:41;;;;;;;2.47;0.90;;;13.10;99.90;;;;;;4896186;29;20501;-46
2021/05/17 19:26:09;;;;;;;1.45;1.00;;;13.00;99.90;;;;;;4895928;29;20037;-47
2021/05/17 19:28:43;;;;;;;3.08;0.90;;;13.10;99.90;;;;;;4896451;29;20095;-46
2021/05/17 19:31:09;;;;;;;1.05;1.05;;;13.00;99.90;;;;;;4896507;29;20124;-45
2021/05/17 19:33:35;;;;;;;1.58;0.90;;;13.00;99.90;;;;;;4896046;29;20050;-46
2021/05/17 19:36:00;;;;;;;1.27;0.70;;;12.90;99.90;;;;;;4894705;29;20083;-47
2021/05/17 19:38:27;;;;;;;1.67;0.82;;;13.00;99.90;;;;;;4896289;29;20029;-48
2021/05/17 19:40:53;;;;;;;5.10;0.98;;;13.00;99.90;;;;;;4879325;29;20033;-47
2021/05/17 19:43:19;;;;;;;2.05;0.68;;;12.90;99.90;;;;;;4895475;29;20033;-48
2021/05/17 19:45:44;;;;;;;0.65;0.65;;;13.00;99.90;;;;;;4895954;29;20039;-44
2021/05/17 19:48:10;;;;;;;10.65;1.00;;;13.00;99.90;;;;;;4895951;29;20032;-52
2021/05/17 19:50:37;;;;;;;2.45;0.90;;;12.90;99.90;;;;;;4890489;29;20029;-46
2021/05/17 19:53:05;;;;;;;0.90;0.90;;;12.90;99.90;;;;;;4877379;29;20554;-46
2021/05/17 19:55:31;;;;;;;2.72;0.63;;;12.90;99.90;;;;;;4886182;29;20060;-48
2021/05/17 19:57:57;;;;;;;3.20;1.13;;;12.80;99.90;;;;;;4893053;29;20456;-50
2021/05/17 20:00:25;;;;;;;1.02;1.02;;;12.80;99.90;;;;;;4888457;29;20767;-48
2021/05/17 20:02:58;;;;;;;1.17;0.90;;;12.90;99.90;;;;;;4874366;29;20056;-45
2021/05/17 20:05:24;;;;;;;1.55;1.45;;;12.90;99.90;;;;;;4882490;29;20047;-49
2021/05/17 20:07:50;;;;;;;2.58;1.00;;;12.80;99.90;;;;;;4892813;29;20561;-47
2021/05/17 20:10:15;;;;;;;2.63;1.20;;;12.90;99.90;;;;;;4891228;29;20060;-46
2021/05/17 20:12:43;;;;;;;1.20;1.10;;;13.00;99.90;;;;;;4892787;29;20024;-45
2021/05/17 20:15:11;;;;;;;1.23;0.98;;;13.00;99.90;;;;;;4890632;29;20064;-48
2021/05/17 20:17:38;;;;;;;5.18;1.13;;;13.00;99.90;;;;;;4891183;29;20064;-50
2021/05/17 20:20:05;;;;;;;1.38;1.00;;;12.80;99.90;;;;;;4882229;29;20021;-48
2021/05/17 20:22:31;;;;;;;1.20;1.17;;;12.90;99.90;;;;;;4892723;29;20048;-48
2021/05/17 20:24:57;;;;;;;3.72;1.20;;;12.90;99.90;;;;;;4892197;29;20024;-50
2021/05/17 20:27:22;;;;;;;1.58;1.17;;;12.80;99.90;;;;;;4892948;29;20120;-48
2021/05/17 20:29:48;;;;;;;1.02;1.02;;;12.90;99.90;;;;;;4892898;29;20108;-43
2021/05/17 20:32:13;;;;;;;1.52;1.08;;;12.90;99.90;;;;;;4892358;29;20079;-48
2021/05/17 20:37:12;;;;;;;1.88;1.50;;;12.80;99.90;;;;;;4892953;29;20028;-44
2021/05/17 20:39:41;;;;;;;2.55;1.60;;;12.80;99.90;;;;;;4890841;29;20454;-50
2021/05/17 20:42:08;;;;;;;2.17;1.20;;;12.70;99.90;;;;;;4892539;29;20028;-53
2021/05/17 20:44:40;;;;;;;2.30;1.20;;;12.70;99.90;;;;;;4892102;29;20541;-56
2021/05/17 20:47:07;;;;;;;4.43;1.30;;;12.60;99.90;;;;;;4891310;29;20040;-53
2021/05/17 20:49:34;;;;;;;1.30;1.20;;;12.90;99.90;;;;;;4892349;29;20660;-54
2021/05/17 20:52:00;;;;;;;1.65;1.13;;;12.60;99.90;;;;;;4892254;29;20044;-55
2021/05/17 20:54:30;;;;;;;1.27;1.10;;;12.50;99.90;;;;;;4891634;29;20021;-55
2021/05/17 20:56:57;;;;;;;1.15;1.10;;;12.50;99.90;;;;;;4895561;29;20029;-50
2021/05/17 20:59:23;;;;;;;1.73;1.42;;;12.50;99.90;;;;;;4895859;29;20516;-53
2021/05/17 21:01:49;;;;;;;1.65;1.30;;;12.60;99.90;;;;;;4895515;29;20044;-49
2021/05/17 21:04:14;;;;;;;2.88;1.05;;;12.60;99.90;;;;;;4895336;29;20053;-55
2021/05/17 21:06:40;;;;;;;1.23;1.05;;;12.60;99.90;;;;;;4895967;29;20045;-56
2021/05/17 21:09:07;;;;;;;1.17;1.13;;;12.70;99.90;;;;;;4892397;29;20052;-53
2021/05/17 21:11:34;;;;;;;1.40;1.02;;;12.70;99.90;;;;;;4894098;29;20036;-51
2021/05/17 21:14:00;;;;;;;2.65;1.13;;;12.60;99.90;;;;;;4893633;29;20029;-53
2021/05/17 21:16:27;;;;;;;1.23;1.13;;;12.60;99.90;;;;;;4882863;29;20033;-55
2021/05/17 21:18:53;;;;;;;1.35;1.20;;;12.60;99.90;;;;;;4893100;29;20041;-60
2021/05/17 21:21:19;;;;;;;2.00;1.15;;;12.60;99.90;;;;;;4884888;29;20431;-57
2021/05/17 21:23:44;;;;;;;3.72;1.45;;;12.60;99.90;;;;;;4882171;29;20029;-58
2021/05/17 21:26:10;;;;;;;3.28;1.25;;;12.60;99.90;;;;;;4877336;29;20696;-54
2021/05/17 21:28:38;;;;;;;1.17;1.08;;;12.50;99.90;;;;;;4888951;29;20028;-52
2021/05/17 21:31:04;;;;;;;1.13;0.90;;;12.50;99.90;;;;;;4888030;29;20032;-47
2021/05/17 21:33:30;;;;;;;1.13;1.10;;;12.40;99.90;;;;;;4876795;29;20050;-49
2021/05/17 21:35:55;;;;;;;4.22;1.30;;;12.40;99.90;;;;;;4884068;29;20033;-55
2021/05/17 21:38:21;;;;;;;3.90;1.20;;;12.40;99.90;;;;;;4884107;29;20032;-58
2021/05/17 21:40:46;;;;;;;0.90;0.90;;;12.40;99.90;;;;;;4897001;29;20037;-58
2021/05/17 21:43:12;;;;;;;1.25;0.90;;;12.50;99.90;;;;;;4894908;29;20052;-52
2021/05/17 21:45:37;;;;;;;1.60;1.10;;;12.60;99.90;;;;;;4893794;29;20033;-57
2021/05/17 21:48:03;;;;;;;1.75;1.33;;;12.50;99.90;;;;;;4881393;29;20029;-54
2021/05/17 21:50:29;;;;;;;1.15;1.05;;;12.50;99.90;;;;;;4877618;29;20025;-56
2021/05/17 21:52:54;;;;;;;1.33;1.13;;;12.40;99.90;;;;;;4879083;29;20033;-53
2021/05/17 21:55:21;;;;;;;4.43;1.30;;;12.30;99.90;;;;;;4877564;29;20025;-54
2021/05/17 21:57:51;;;;;;;1.85;1.33;;;12.30;99.90;;;;;;4887881;29;20395;-54
2021/05/17 22:00:31;;;;;;;8.73;1.73;;;12.20;99.90;;;;;;4890551;29;20029;-51
2021/05/17 22:02:59;;;;;;;3.63;1.42;;;12.20;99.90;;;;;;4875862;29;20324;-53
2021/05/17 22:05:27;;;;;;;2.65;1.50;;;12.20;99.90;;;;;;4881928;29;20410;-54
2021/05/17 22:10:38;;;;;;;;;;;12.10;99.90;;;;;;4876753;29;20040;-61
2021/05/17 22:13:04;;;;;;;;;;;12.10;99.90;;;;;;4883469;29;19978;-50
2021/05/17 22:15:33;;;;;;;3.58;1.65;;;12.10;99.90;;;;;;4894420;29;19913;-50
2021/05/17 22:17:58;;;;;;;1.88;1.77;;;12.00;99.90;;;;;;4883759;29;20618;-52
2021/05/17 22:20:24;;;;;;;2.08;1.88;;;12.00;99.90;;;;;;4875260;29;20089;-55
2021/05/17 22:22:50;;;;;;;3.35;1.83;;;11.90;99.90;;;;;;4894115;29;20647;-48
2021/05/17 22:25:17;;;;;;;3.47;2.00;;;11.80;99.90;;;;;;4893862;29;20355;-52
2021/05/17 22:27:44;;;;;;;3.00;2.10;;;11.80;99.90;;;;;;4895999;29;20031;-57
2021/05/17 22:30:10;;;;;;;3.15;2.10;;;11.80;99.90;;;;;;4896874;29;20179;-56
2021/05/17 22:32:36;;;;;;;2.67;2.30;;;11.80;99.90;;;;;;4897308;29;20024;-50
2021/05/17 22:35:03;;;;;;;2.38;2.17;;;11.70;99.90;;;;;;4896147;29;20394;-52
2021/05/17 22:37:28;;;;;;;4.05;2.08;;;11.70;99.90;;;;;;4896161;29;20032;-52
2021/05/17 22:39:54;;;;;;;1.83;1.55;;;11.70;99.90;;;;;;4897157;29;20059;-51
2021/05/17 22:42:20;;;;;;;4.18;2.33;;;11.70;99.90;;;;;;4896887;29;20049;-56
2021/05/17 22:44:45;;;;;;;2.40;2.15;;;11.70;99.90;;;;;;4896541;29;20081;-53
2021/05/17 22:47:11;;;;;;;3.10;2.15;;;11.70;99.90;;;;;;4896587;29;20036;-53
2021/05/17 22:49:36;;;;;;;2.00;1.90;;;11.70;99.90;;;;;;4896374;29;20032;-52
2021/05/17 22:52:02;;;;;;;3.38;2.35;;;11.70;99.90;;;;;;4896719;29;20021;-53
2021/05/17 22:54:31;;;;;;;4.38;2.20;;;11.70;99.90;;;;;;4896169;29;20025;-56
2021/05/17 22:56:56;;;;;;;3.95;3.25;;;11.70;99.90;;;;;;4896420;29;20029;-54
2021/05/17 22:59:22;;;;;;;2.78;2.47;;;11.60;99.90;;;;;;4896317;29;20478;-55
2021/05/17 23:01:47;;;;;;;3.60;2.55;;;11.70;99.90;;;;;;4896437;29;20045;-54
2021/05/17 23:04:13;;;;;;;6.90;2.53;;;11.70;99.90;;;;;;4895803;29;20025;-53
2021/05/17 23:06:39;;;;;;;3.30;2.20;;;11.70;99.90;;;;;;4895993;29;20035;-53
2021/05/17 23:09:05;;;;;;;2.65;2.15;;;11.80;99.90;;;;;;4879418;29;20025;-54
2021/05/17 23:11:30;;;;;;;3.28;2.35;;;11.90;99.90;;;;;;4896236;29;20443;-54
2021/05/17 23:13:56;;;;;;;7.78;2.60;;;11.90;99.90;;;;;;4895433;29;20120;-52